createdAt,value
2017-07-14T00:02:26.246Z,14.64
2017-07-14T00:04:53.838Z,14.64
2017-07-14T00:07:21.444Z,14.61
2017-07-14T00:09:49.062Z,14.62
2017-07-14T00:12:16.670Z,14.63
2017-07-14T00:14:44.306Z,14.66
2017-07-14T00:17:11.914Z,14.68
2017-07-14T00:19:39.800Z,14.71
2017-07-14T00:22:07.427Z,14.74
2017-07-14T00:24:35.068Z,14.74
2017-07-14T00:27:02.722Z,14.76
2017-07-14T00:29:30.316Z,14.79
2017-07-14T00:31:57.982Z,14.83
2017-07-14T00:34:25.590Z,14.74
2017-07-14T00:36:53.615Z,14.65
2017-07-14T00:39:21.230Z,14.60
2017-07-14T00:41:48.831Z,14.60
2017-07-14T00:44:16.473Z,14.59
2017-07-14T00:46:44.088Z,14.62
2017-07-14T00:49:12.089Z,14.61
2017-07-14T00:51:39.687Z,14.62
2017-07-14T00:54:07.281Z,14.62
2017-07-14T00:56:34.901Z,14.65
2017-07-14T00:59:02.502Z,14.69
2017-07-14T01:01:30.129Z,14.75
2017-07-14T01:03:57.728Z,14.79
2017-07-14T01:06:25.677Z,14.82
2017-07-14T01:08:53.281Z,14.84
2017-07-14T01:11:20.864Z,14.86
2017-07-14T01:13:48.520Z,14.85
2017-07-14T01:16:16.117Z,14.82
2017-07-14T01:18:44.033Z,14.82
2017-07-14T01:21:11.661Z,14.82
2017-07-14T01:23:39.256Z,14.78
2017-07-14T01:26:06.893Z,14.77
2017-07-14T01:28:34.496Z,14.75
2017-07-14T01:31:02.125Z,14.76
2017-07-14T01:33:29.723Z,14.76
2017-07-14T01:35:57.355Z,14.77
2017-07-14T01:38:24.961Z,14.72
2017-07-14T01:40:52.870Z,14.62
2017-07-14T01:43:20.481Z,14.58
2017-07-14T01:45:48.099Z,14.57
2017-07-14T01:48:15.709Z,14.55
2017-07-14T01:50:43.369Z,14.54
2017-07-14T01:53:10.992Z,14.54
2017-07-14T01:55:38.616Z,14.53
2017-07-14T01:58:06.597Z,14.53
2017-07-14T02:00:34.197Z,14.53
2017-07-14T02:03:01.794Z,14.55
2017-07-14T02:05:29.401Z,14.57
2017-07-14T02:07:56.991Z,14.59
2017-07-14T02:10:24.895Z,14.59
2017-07-14T02:12:52.522Z,14.59
2017-07-14T02:15:20.140Z,14.58
2017-07-14T02:17:47.786Z,14.58
2017-07-14T02:20:15.397Z,14.57
2017-07-14T02:22:43.001Z,14.55
2017-07-14T02:25:10.615Z,14.54
2017-07-14T02:27:38.252Z,14.54
2017-07-14T02:30:05.826Z,14.56
2017-07-14T02:32:33.433Z,14.53
2017-07-14T02:35:01.309Z,14.48
2017-07-14T02:37:28.896Z,14.43
2017-07-14T02:39:56.481Z,14.40
2017-07-14T02:42:24.087Z,14.41
2017-07-14T02:44:51.700Z,14.35
2017-07-14T02:47:19.318Z,14.29
2017-07-14T02:49:46.888Z,14.27
2017-07-14T02:52:14.877Z,14.28
2017-07-14T02:54:42.463Z,14.23
2017-07-14T02:57:10.199Z,14.20
2017-07-14T02:59:37.821Z,14.20
2017-07-14T03:02:05.436Z,14.19
2017-07-14T03:04:33.045Z,14.21
2017-07-14T03:07:00.639Z,14.22
2017-07-14T03:09:28.220Z,14.20
2017-07-14T03:11:55.868Z,14.20
2017-07-14T03:14:23.484Z,14.22
2017-07-14T03:16:51.209Z,14.25
2017-07-14T03:19:18.816Z,14.28
2017-07-14T03:21:46.812Z,14.33
2017-07-14T03:24:14.401Z,14.36
2017-07-14T03:26:41.986Z,14.37
2017-07-14T03:29:09.627Z,14.36
2017-07-14T03:31:37.207Z,14.34
2017-07-14T03:34:04.817Z,14.32
2017-07-14T03:36:32.435Z,14.31
2017-07-14T03:39:00.337Z,14.31
2017-07-14T03:41:27.942Z,14.32
2017-07-14T03:43:55.521Z,14.30
2017-07-14T03:46:23.142Z,14.29
2017-07-14T03:48:50.739Z,14.29
2017-07-14T03:51:18.405Z,14.33
2017-07-14T03:53:45.991Z,14.37
2017-07-14T03:56:13.986Z,14.38
2017-07-14T03:58:41.682Z,14.40
2017-07-14T04:01:09.271Z,14.41
2017-07-14T04:03:36.901Z,14.40
2017-07-14T04:06:04.506Z,14.43
2017-07-14T04:08:32.113Z,14.46
2017-07-14T04:10:59.718Z,14.49
2017-07-14T04:13:27.665Z,14.53
2017-07-14T04:15:55.268Z,14.58
2017-07-14T04:18:22.850Z,14.64
2017-07-14T04:20:50.492Z,14.61
2017-07-14T04:23:18.093Z,14.57
2017-07-14T04:25:46.061Z,14.54
2017-07-14T04:28:13.681Z,14.55
2017-07-14T04:30:41.277Z,14.58
2017-07-14T04:33:08.904Z,14.64
2017-07-14T04:35:36.468Z,14.65
2017-07-14T04:38:04.069Z,14.66
2017-07-14T04:40:31.663Z,14.64
2017-07-14T04:42:59.581Z,14.59
2017-07-14T04:45:27.176Z,14.54
2017-07-14T04:47:54.786Z,14.52
2017-07-14T04:50:22.387Z,14.56
2017-07-14T04:52:49.984Z,14.62
2017-07-14T04:55:17.682Z,14.65
2017-07-14T04:57:45.293Z,14.66
2017-07-14T05:00:13.233Z,14.67
2017-07-14T05:02:40.810Z,14.65
2017-07-14T05:05:08.415Z,14.68
2017-07-14T05:07:36.099Z,14.74
2017-07-14T05:10:03.696Z,14.76
2017-07-14T05:12:31.334Z,14.80
2017-07-14T05:14:58.948Z,14.82
2017-07-14T05:17:26.605Z,14.83
2017-07-14T05:19:54.237Z,14.80
2017-07-14T05:22:21.855Z,14.76
2017-07-14T05:24:49.469Z,14.76
2017-07-14T05:27:17.053Z,14.70
2017-07-14T05:29:44.933Z,14.65
2017-07-14T05:32:12.577Z,14.64
2017-07-14T05:34:40.182Z,14.63
2017-07-14T05:37:08.850Z,14.70
2017-07-14T05:39:36.430Z,14.76
2017-07-14T05:42:04.316Z,14.82
2017-07-14T05:44:31.913Z,14.86
2017-07-14T05:46:59.545Z,14.89
2017-07-14T05:49:27.279Z,14.94
2017-07-14T05:51:54.865Z,15.01
2017-07-14T05:54:22.461Z,15.06
2017-07-14T05:56:50.046Z,15.10
2017-07-14T05:59:18.060Z,15.14
2017-07-14T06:01:45.677Z,15.18
2017-07-14T06:04:14.175Z,15.22
2017-07-14T06:06:41.781Z,15.28
2017-07-14T06:09:09.414Z,15.32
2017-07-14T06:11:37.039Z,15.37
2017-07-14T06:14:04.605Z,15.40
2017-07-14T06:16:32.625Z,15.44
2017-07-14T06:19:00.230Z,15.42
2017-07-14T06:21:27.844Z,15.43
2017-07-14T06:23:55.455Z,15.46
2017-07-14T06:26:23.051Z,15.49
2017-07-14T06:28:50.948Z,15.53
2017-07-14T06:31:18.610Z,15.49
2017-07-14T06:33:46.188Z,15.51
2017-07-14T06:36:13.773Z,15.52
2017-07-14T06:38:41.374Z,15.53
2017-07-14T06:41:08.979Z,15.54
2017-07-14T06:43:36.561Z,15.54
2017-07-14T06:46:04.202Z,15.55
2017-07-14T06:48:31.811Z,15.52
2017-07-14T06:50:59.807Z,15.51
2017-07-14T06:53:27.402Z,15.57
2017-07-14T06:55:55.011Z,15.66
2017-07-14T06:58:22.624Z,15.75
2017-07-14T07:00:50.209Z,15.80
2017-07-14T07:03:18.088Z,15.87
2017-07-14T07:05:45.675Z,15.92
2017-07-14T07:08:13.260Z,15.91
2017-07-14T07:10:40.881Z,15.94
2017-07-14T07:13:08.473Z,16.00
2017-07-14T07:15:36.079Z,16.06
2017-07-14T07:18:03.676Z,16.13
2017-07-14T07:20:31.736Z,16.21
2017-07-14T07:22:59.312Z,16.30
2017-07-14T07:25:26.907Z,16.39
2017-07-14T07:27:54.526Z,16.52
2017-07-14T07:30:22.104Z,16.65
2017-07-14T07:32:49.720Z,16.73
2017-07-14T07:35:17.320Z,16.85
2017-07-14T07:37:45.333Z,17.02
2017-07-14T07:40:12.915Z,17.12
2017-07-14T07:42:40.507Z,17.21
2017-07-14T07:45:08.138Z,17.28
2017-07-14T07:47:41.308Z,17.25
2017-07-14T07:50:08.945Z,17.25
2017-07-14T07:52:36.558Z,17.29
2017-07-14T07:55:04.472Z,17.39
2017-07-14T07:57:32.068Z,17.47
2017-07-14T07:59:59.684Z,17.58
2017-07-14T08:02:27.293Z,17.66
2017-07-14T08:04:54.892Z,17.78
2017-07-14T08:07:22.808Z,17.85
2017-07-14T08:09:50.393Z,17.93
2017-07-14T08:12:17.978Z,18.02
2017-07-14T08:14:45.612Z,18.03
2017-07-14T08:17:13.194Z,18.03
2017-07-14T08:19:41.061Z,18.03
2017-07-14T08:22:08.645Z,18.11
2017-07-14T08:24:36.244Z,18.23
2017-07-14T08:27:03.969Z,18.28
2017-07-14T08:29:31.579Z,18.32
2017-07-14T08:31:59.476Z,18.44
2017-07-14T08:34:27.083Z,18.50
2017-07-14T08:36:54.757Z,18.55
2017-07-14T08:39:22.386Z,18.63
2017-07-14T08:41:49.983Z,18.70
2017-07-14T08:44:17.728Z,18.77
2017-07-14T08:46:45.344Z,18.74
2017-07-14T08:49:12.929Z,18.79
2017-07-14T08:51:40.819Z,18.78
2017-07-14T08:54:08.413Z,18.68
2017-07-14T08:56:35.998Z,18.69
2017-07-14T08:59:03.597Z,18.73
2017-07-14T09:01:31.188Z,18.85
2017-07-14T09:03:59.143Z,19.14
2017-07-14T09:06:26.731Z,19.40
2017-07-14T09:08:54.319Z,19.60
2017-07-14T09:11:21.926Z,19.75
2017-07-14T09:13:49.537Z,19.87
2017-07-14T09:16:17.430Z,19.96
2017-07-14T09:18:45.051Z,20.04
2017-07-14T09:21:12.662Z,20.07
2017-07-14T09:23:40.293Z,20.14
2017-07-14T09:26:07.869Z,20.21
2017-07-14T09:28:35.474Z,20.33
2017-07-14T09:31:03.063Z,20.37
2017-07-14T09:33:31.061Z,20.37
2017-07-14T09:35:58.666Z,20.29
2017-07-14T09:38:26.267Z,20.34
2017-07-14T09:40:53.885Z,20.42
2017-07-14T09:43:21.593Z,20.55
2017-07-14T09:45:49.576Z,20.74
2017-07-14T09:48:17.213Z,20.90
2017-07-14T09:50:44.821Z,21.08
2017-07-14T09:53:12.448Z,21.14
2017-07-14T09:55:40.049Z,21.16
2017-07-14T09:58:07.670Z,21.19
2017-07-14T10:00:35.285Z,21.21
2017-07-14T10:03:03.332Z,21.19
2017-07-14T10:05:30.946Z,21.19
2017-07-14T10:07:58.554Z,21.28
2017-07-14T10:10:26.187Z,21.39
2017-07-14T10:12:53.845Z,21.49
2017-07-14T10:15:22.977Z,21.68
2017-07-14T10:17:50.581Z,21.82
2017-07-14T10:20:18.555Z,21.84
2017-07-14T10:22:46.528Z,21.94
2017-07-14T10:25:14.148Z,22.06
2017-07-14T10:27:49.249Z,22.01
2017-07-14T10:30:16.879Z,22.09
2017-07-14T10:32:44.930Z,22.41
2017-07-14T10:35:12.537Z,22.86
2017-07-14T10:37:40.142Z,23.05
2017-07-14T10:40:08.770Z,23.00
2017-07-14T10:42:36.376Z,23.00
2017-07-14T10:45:04.126Z,23.07
2017-07-14T10:47:31.820Z,23.14
2017-07-14T10:49:59.853Z,23.28
2017-07-14T10:52:27.460Z,23.42
2017-07-14T10:54:55.055Z,23.44
2017-07-14T10:57:22.699Z,23.49
2017-07-14T10:59:50.282Z,23.58
2017-07-14T11:02:17.974Z,23.66
2017-07-14T11:04:45.685Z,23.65
2017-07-14T11:07:13.331Z,23.61
2017-07-14T11:09:40.921Z,23.52
2017-07-14T11:12:14.410Z,23.51
2017-07-14T11:14:42.164Z,23.47
2017-07-14T11:17:09.782Z,23.33
2017-07-14T11:19:37.403Z,23.35
2017-07-14T11:22:05.033Z,23.48
2017-07-14T11:24:32.640Z,23.56
2017-07-14T11:27:00.265Z,23.53
2017-07-14T11:29:27.887Z,23.45
2017-07-14T11:31:55.511Z,23.48
2017-07-14T11:34:23.114Z,23.50
2017-07-14T11:36:50.727Z,23.32
2017-07-14T11:39:18.339Z,23.26
2017-07-14T11:41:46.087Z,23.20
2017-07-14T11:44:13.700Z,23.08
2017-07-14T11:46:41.328Z,22.95
2017-07-14T11:49:08.922Z,22.87
2017-07-14T11:51:36.538Z,22.76
2017-07-14T11:54:04.442Z,22.68
2017-07-14T11:56:32.069Z,22.62
2017-07-14T11:58:59.678Z,22.63
2017-07-14T12:01:27.311Z,22.69
2017-07-14T12:03:54.993Z,22.82
2017-07-14T12:06:22.989Z,22.87
2017-07-14T12:08:50.659Z,22.83
2017-07-14T12:11:18.284Z,22.79
2017-07-14T12:13:45.918Z,22.80
2017-07-14T12:16:13.555Z,22.77
2017-07-14T12:18:41.514Z,22.62
2017-07-14T12:21:09.129Z,22.51
2017-07-14T12:23:36.939Z,22.43
2017-07-14T12:26:04.573Z,22.40
2017-07-14T12:28:32.219Z,22.35
2017-07-14T12:30:59.864Z,22.26
2017-07-14T12:33:27.467Z,22.12
2017-07-14T12:35:55.412Z,22.00
2017-07-14T12:38:23.019Z,21.85
2017-07-14T12:40:50.716Z,21.69
2017-07-14T12:43:18.403Z,21.49
2017-07-14T12:45:46.075Z,21.38
2017-07-14T12:48:14.664Z,21.36
2017-07-14T12:50:42.275Z,21.43
2017-07-14T12:53:10.345Z,21.56
2017-07-14T12:55:37.934Z,21.76
2017-07-14T12:58:05.561Z,22.00
2017-07-14T13:00:33.177Z,22.11
2017-07-14T13:03:00.812Z,22.17
2017-07-14T13:05:28.831Z,22.20
2017-07-14T13:07:56.425Z,22.21
2017-07-14T13:10:24.027Z,22.20
2017-07-14T13:12:51.662Z,22.06
2017-07-14T13:15:19.253Z,22.01
2017-07-14T13:17:46.887Z,21.94
2017-07-14T13:20:14.507Z,21.95
2017-07-14T13:22:42.570Z,21.91
2017-07-14T13:25:10.190Z,21.82
2017-07-14T13:27:37.777Z,21.84
2017-07-14T13:30:05.429Z,21.91
2017-07-14T13:32:33.079Z,21.92
2017-07-14T13:35:01.052Z,21.86
2017-07-14T13:37:28.648Z,21.90
2017-07-14T13:39:56.291Z,21.95
2017-07-14T13:42:23.939Z,21.90
2017-07-14T13:44:51.541Z,21.89
2017-07-14T13:47:19.454Z,22.12
2017-07-14T13:49:49.245Z,22.25
2017-07-14T13:52:16.845Z,22.31
2017-07-14T13:54:44.565Z,22.24
2017-07-14T13:57:12.187Z,22.19
2017-07-14T13:59:40.113Z,22.18
2017-07-14T14:02:14.484Z,22.12
2017-07-14T14:04:42.487Z,22.19
2017-07-14T14:07:10.097Z,22.33
2017-07-14T14:09:37.717Z,22.49
2017-07-14T14:12:05.394Z,22.56
2017-07-14T14:14:33.031Z,22.48
2017-07-14T14:17:00.949Z,22.41
2017-07-14T14:19:28.575Z,22.33
2017-07-14T14:21:56.195Z,22.27
2017-07-14T14:24:23.842Z,22.50
2017-07-14T14:26:51.461Z,23.84
2017-07-14T14:29:19.370Z,24.65
2017-07-14T14:31:46.975Z,25.33
2017-07-14T14:34:14.577Z,25.85
2017-07-14T14:36:42.210Z,26.34
2017-07-14T14:39:10.072Z,26.68
2017-07-14T14:41:38.030Z,26.85
2017-07-14T14:44:05.693Z,27.06
2017-07-14T14:46:33.358Z,27.31
2017-07-14T14:49:01.017Z,27.25
2017-07-14T14:51:28.616Z,27.23
2017-07-14T14:53:56.233Z,27.44
2017-07-14T14:56:23.813Z,27.65
2017-07-14T14:58:51.688Z,27.79
2017-07-14T15:01:19.357Z,27.87
2017-07-14T15:03:46.940Z,28.10
2017-07-14T15:06:14.552Z,28.34
2017-07-14T15:08:42.159Z,28.50
2017-07-14T15:11:10.114Z,28.63
2017-07-14T15:13:37.740Z,29.00
2017-07-14T15:16:05.364Z,28.96
2017-07-14T15:18:33.009Z,28.93
2017-07-14T15:21:00.609Z,29.01
2017-07-14T15:23:28.510Z,29.37
2017-07-14T15:25:56.148Z,29.39
2017-07-14T15:28:23.753Z,29.49
2017-07-14T15:30:51.337Z,29.06
2017-07-14T15:33:18.921Z,28.34
2017-07-14T15:35:46.560Z,28.51
2017-07-14T15:38:14.178Z,28.51
2017-07-14T15:40:42.207Z,27.61
2017-07-14T15:43:09.920Z,26.83
2017-07-14T15:45:37.547Z,27.06
2017-07-14T15:48:05.194Z,27.71
2017-07-14T15:50:32.808Z,28.18
2017-07-14T15:53:00.887Z,27.93
2017-07-14T15:55:28.503Z,27.58
2017-07-14T15:57:56.107Z,27.18
2017-07-14T16:00:23.726Z,26.49
2017-07-14T16:02:51.349Z,26.11
2017-07-14T16:05:18.995Z,25.75
2017-07-14T16:07:46.609Z,25.34
2017-07-14T16:10:14.509Z,25.06
2017-07-14T16:12:42.274Z,24.87
2017-07-14T16:15:09.902Z,24.62
2017-07-14T16:17:37.555Z,24.42
2017-07-14T16:20:05.166Z,24.16
2017-07-14T16:22:32.808Z,23.93
2017-07-14T16:25:00.461Z,23.82
2017-07-14T16:27:28.062Z,23.68
2017-07-14T16:29:56.097Z,23.44
2017-07-14T16:32:23.681Z,23.33
2017-07-14T16:34:51.278Z,23.26
2017-07-14T16:37:20.317Z,23.13
2017-07-14T16:39:47.934Z,23.01
2017-07-14T16:42:15.537Z,22.89
2017-07-14T16:44:43.643Z,22.68
2017-07-14T16:47:13.357Z,22.51
2017-07-14T16:49:40.981Z,22.41
2017-07-14T16:52:08.589Z,22.39
2017-07-14T16:54:36.167Z,22.18
2017-07-14T16:57:03.779Z,21.97
2017-07-14T16:59:31.383Z,21.65
2017-07-14T17:01:59.307Z,21.52
2017-07-14T17:04:26.895Z,21.32
2017-07-14T17:06:54.510Z,21.11
2017-07-14T17:09:22.210Z,20.98
2017-07-14T17:11:49.809Z,20.88
2017-07-14T17:14:17.693Z,20.77
2017-07-14T17:16:45.774Z,20.65
2017-07-14T17:19:13.378Z,20.63
2017-07-14T17:21:40.999Z,20.62
2017-07-14T17:24:08.665Z,20.53
2017-07-14T17:26:36.296Z,20.40
2017-07-14T17:29:03.897Z,20.25
2017-07-14T17:31:31.885Z,20.11
2017-07-14T17:33:59.491Z,19.96
2017-07-14T17:36:27.085Z,19.83
2017-07-14T17:38:54.798Z,19.63
2017-07-14T17:41:22.415Z,19.50
2017-07-14T17:43:50.332Z,19.35
2017-07-14T17:46:18.022Z,19.22
2017-07-14T17:48:45.625Z,19.17
2017-07-14T17:51:13.262Z,19.15
2017-07-14T17:53:40.861Z,19.11
2017-07-14T17:56:08.507Z,19.07
2017-07-14T17:58:36.209Z,18.96
2017-07-14T18:01:04.131Z,18.91
2017-07-14T18:03:31.737Z,18.93
2017-07-14T18:05:59.328Z,18.98
2017-07-14T18:08:26.952Z,19.00
2017-07-14T18:10:54.557Z,18.93
2017-07-14T18:13:22.193Z,18.84
2017-07-14T18:15:49.825Z,18.78
2017-07-14T18:18:17.914Z,18.70
2017-07-14T18:20:45.533Z,18.61
2017-07-14T18:23:13.250Z,18.62
2017-07-14T18:25:40.933Z,18.62
2017-07-14T18:28:08.523Z,18.58
2017-07-14T18:30:36.409Z,18.57
2017-07-14T18:33:04.033Z,18.54
2017-07-14T18:35:31.921Z,18.50
2017-07-14T18:37:59.579Z,18.41
2017-07-14T18:40:27.210Z,18.39
2017-07-14T18:42:54.860Z,18.38
2017-07-14T18:45:22.528Z,18.36
2017-07-14T18:47:50.484Z,18.33
2017-07-14T18:50:18.080Z,18.32
2017-07-14T18:52:45.785Z,18.31
2017-07-14T18:55:13.376Z,18.26
2017-07-14T18:57:41.020Z,18.24
2017-07-14T19:00:08.920Z,18.19
2017-07-14T19:02:36.545Z,18.15
2017-07-14T19:05:04.174Z,18.13
2017-07-14T19:07:31.831Z,18.11
2017-07-14T19:09:59.476Z,18.09
2017-07-14T19:12:29.207Z,18.07
2017-07-14T19:14:56.820Z,17.98
2017-07-14T19:17:24.723Z,17.91
2017-07-14T19:19:52.305Z,17.81
2017-07-14T19:22:20.013Z,17.68
2017-07-14T19:24:47.614Z,17.65
2017-07-14T19:27:15.220Z,17.59
2017-07-14T19:29:42.846Z,17.59
2017-07-14T19:32:10.445Z,17.60
2017-07-14T19:34:38.471Z,17.60
2017-07-14T19:37:06.063Z,17.58
2017-07-14T19:39:34.027Z,17.59
2017-07-14T19:42:02.738Z,17.61
2017-07-14T19:44:30.365Z,17.64
2017-07-14T19:46:58.266Z,17.66
2017-07-14T19:49:25.878Z,17.63
2017-07-14T19:51:53.479Z,17.60
2017-07-14T19:54:21.090Z,17.57
2017-07-14T19:56:48.696Z,17.55
2017-07-14T19:59:16.324Z,17.56
2017-07-14T20:01:44.065Z,17.57
2017-07-14T20:04:12.022Z,17.58
2017-07-14T20:06:39.636Z,17.57
2017-07-14T20:09:07.245Z,17.53
2017-07-14T20:11:34.913Z,17.48
2017-07-14T20:14:02.597Z,17.45
2017-07-14T20:16:30.501Z,17.41
2017-07-14T20:18:58.135Z,17.37
2017-07-14T20:21:25.737Z,17.38
2017-07-14T20:23:53.401Z,17.36
2017-07-14T20:26:21.148Z,17.34
2017-07-14T20:28:48.887Z,17.33
2017-07-14T20:31:16.457Z,17.31
2017-07-14T20:33:44.421Z,17.30
2017-07-14T20:36:12.056Z,17.28
2017-07-14T20:38:39.647Z,17.30
2017-07-14T20:41:07.307Z,17.32
2017-07-14T20:43:34.916Z,17.31
2017-07-14T20:46:02.967Z,17.32
2017-07-14T20:48:30.592Z,17.29
2017-07-14T20:50:58.303Z,17.25
2017-07-14T20:53:25.949Z,17.18
2017-07-14T20:55:53.557Z,17.12
2017-07-14T20:58:21.504Z,17.08
2017-07-14T21:00:49.110Z,17.07
2017-07-14T21:03:16.697Z,17.05
2017-07-14T21:05:44.335Z,17.01
2017-07-14T21:08:12.261Z,16.91
2017-07-14T21:10:39.897Z,16.85
2017-07-14T21:13:07.634Z,16.87
2017-07-14T21:15:35.520Z,16.89
2017-07-14T21:18:03.107Z,16.90
2017-07-14T21:20:30.704Z,16.90
2017-07-14T21:22:58.362Z,16.89
2017-07-14T21:25:26.049Z,16.87
2017-07-14T21:27:54.147Z,16.88
2017-07-14T21:30:21.765Z,16.87
2017-07-14T21:32:49.397Z,16.90
2017-07-14T21:35:17.015Z,16.88
2017-07-14T21:37:44.620Z,16.84
2017-07-14T21:40:12.268Z,16.85
2017-07-14T21:42:40.793Z,16.88
2017-07-14T21:45:08.683Z,16.86
2017-07-14T21:47:36.304Z,16.83
2017-07-14T21:50:03.938Z,16.78
2017-07-14T21:52:31.606Z,16.72
2017-07-14T21:55:00.306Z,16.68
2017-07-14T21:57:28.311Z,16.65
2017-07-14T21:59:55.935Z,16.63
2017-07-14T22:02:23.541Z,16.61
2017-07-14T22:04:51.152Z,16.61
2017-07-14T22:07:18.738Z,16.63
2017-07-14T22:09:46.353Z,16.65
2017-07-14T22:12:14.027Z,16.64
2017-07-14T22:14:41.975Z,16.62
2017-07-14T22:17:09.574Z,16.66
2017-07-14T22:19:37.169Z,16.67
2017-07-14T22:22:04.768Z,16.66
2017-07-14T22:24:32.368Z,16.66
2017-07-14T22:26:59.996Z,16.67
2017-07-14T22:29:27.616Z,16.70
2017-07-14T22:31:55.591Z,16.71
2017-07-14T22:34:23.207Z,16.70
2017-07-14T22:36:50.815Z,16.70
2017-07-14T22:39:18.430Z,16.67
2017-07-14T22:41:46.012Z,16.64
2017-07-14T22:44:13.943Z,16.60
2017-07-14T22:46:41.555Z,16.55
2017-07-14T22:49:09.156Z,16.50
2017-07-14T22:51:36.798Z,16.45
2017-07-14T22:54:04.416Z,16.39
2017-07-14T22:56:32.013Z,16.32
2017-07-14T22:58:59.589Z,16.30
2017-07-14T23:01:27.484Z,16.26
2017-07-14T23:03:55.072Z,16.26
2017-07-14T23:06:22.675Z,16.22
2017-07-14T23:08:50.274Z,16.17
2017-07-14T23:11:17.854Z,16.12
2017-07-14T23:13:45.438Z,16.12
2017-07-14T23:16:13.037Z,16.04
2017-07-14T23:18:40.629Z,15.97
2017-07-14T23:21:08.645Z,15.94
2017-07-14T23:23:36.362Z,15.91
2017-07-14T23:26:03.943Z,15.92
2017-07-14T23:28:32.089Z,15.86
2017-07-14T23:30:59.674Z,15.84
2017-07-14T23:33:27.277Z,15.85
2017-07-14T23:35:54.913Z,15.75
2017-07-14T23:38:22.511Z,15.63
2017-07-14T23:40:50.424Z,15.59
2017-07-14T23:43:18.035Z,15.55
2017-07-14T23:45:45.732Z,15.37
2017-07-14T23:48:13.349Z,15.24
2017-07-14T23:50:40.989Z,15.16
2017-07-14T23:53:08.633Z,15.10
2017-07-14T23:55:36.222Z,15.07
2017-07-14T23:58:04.120Z,15.08
